sensor_id;sensor_type;location;lat;lon;timestamp;P1;durP1;ratioP1;P2;durP2;ratioP2
23242;SDS011;11790;49.578;11.214;2022-12-18T00:04:00;44.55;;;16.48;;
23242;SDS011;11790;49.578;11.214;2022-12-18T00:09:01;57.75;;;19.13;;
23242;SDS011;11790;49.578;11.214;2022-12-18T00:14:02;55.95;;;18.65;;
23242;SDS011;11790;49.578;11.214;2022-12-18T00:19:02;64.32;;;19.90;;
23242;SDS011;11790;49.578;11.214;2022-12-18T00:24:03;58.88;;;19.23;;
23242;SDS011;11790;49.578;11.214;2022-12-18T00:29:07;70.75;;;23.70;;
23242;SDS011;11790;49.578;11.214;2022-12-18T00:34:09;78.03;;;24.20;;
23242;SDS011;11790;49.578;11.214;2022-12-18T00:39:10;69.55;;;22.58;;
23242;SDS011;11790;49.578;11.214;2022-12-18T00:44:15;55.90;;;19.13;;
23242;SDS011;11790;49.578;11.214;2022-12-18T00:49:18;53.95;;;18.52;;
23242;SDS011;11790;49.578;11.214;2022-12-18T00:54:19;62.42;;;20.98;;
23242;SDS011;11790;49.578;11.214;2022-12-18T00:59:19;63.75;;;21.38;;
23242;SDS011;11790;49.578;11.214;2022-12-18T01:04:19;63.05;;;20.65;;
23242;SDS011;11790;49.578;11.214;2022-12-18T01:09:19;51.88;;;19.40;;
23242;SDS011;11790;49.578;11.214;2022-12-18T01:14:20;54.28;;;19.17;;
23242;SDS011;11790;49.578;11.214;2022-12-18T01:19:20;51.42;;;17.77;;
23242;SDS011;11790;49.578;11.214;2022-12-18T01:24:20;50.05;;;17.58;;
23242;SDS011;11790;49.578;11.214;2022-12-18T01:29:20;51.65;;;15.85;;
23242;SDS011;11790;49.578;11.214;2022-12-18T01:34:22;47.63;;;16.50;;
23242;SDS011;11790;49.578;11.214;2022-12-18T01:39:22;47.42;;;16.45;;
23242;SDS011;11790;49.578;11.214;2022-12-18T01:49:42;49.00;;;16.98;;
23242;SDS011;11790;49.578;11.214;2022-12-18T01:54:42;53.92;;;17.67;;
23242;SDS011;11790;49.578;11.214;2022-12-18T01:59:43;49.17;;;17.05;;
23242;SDS011;11790;49.578;11.214;2022-12-18T02:04:43;41.17;;;13.80;;
23242;SDS011;11790;49.578;11.214;2022-12-18T02:09:46;45.20;;;15.85;;
23242;SDS011;11790;49.578;11.214;2022-12-18T02:30:27;38.15;;;12.60;;
23242;SDS011;11790;49.578;11.214;2022-12-18T02:35:30;42.97;;;12.20;;
23242;SDS011;11790;49.578;11.214;2022-12-18T02:40:31;41.42;;;12.02;;
23242;SDS011;11790;49.578;11.214;2022-12-18T02:45:31;36.67;;;12.57;;
23242;SDS011;11790;49.578;11.214;2022-12-18T02:50:35;34.80;;;11.98;;
23242;SDS011;11790;49.578;11.214;2022-12-18T03:01:21;32.10;;;12.20;;
23242;SDS011;11790;49.578;11.214;2022-12-18T03:06:22;49.85;;;15.60;;
23242;SDS011;11790;49.578;11.214;2022-12-18T03:11:23;41.67;;;13.75;;
23242;SDS011;11790;49.578;11.214;2022-12-18T03:16:44;45.33;;;13.48;;
23242;SDS011;11790;49.578;11.214;2022-12-18T03:21:49;46.33;;;12.95;;
23242;SDS011;11790;49.578;11.214;2022-12-18T03:26:52;30.20;;;11.82;;
23242;SDS011;11790;49.578;11.214;2022-12-18T03:31:55;29.42;;;10.85;;
23242;SDS011;11790;49.578;11.214;2022-12-18T03:36:56;41.63;;;13.00;;
23242;SDS011;11790;49.578;11.214;2022-12-18T03:42:09;42.92;;;15.13;;
23242;SDS011;11790;49.578;11.214;2022-12-18T03:47:15;43.58;;;13.80;;
23242;SDS011;11790;49.578;11.214;2022-12-18T03:52:26;40.15;;;13.45;;
23242;SDS011;11790;49.578;11.214;2022-12-18T03:57:28;35.67;;;12.00;;
23242;SDS011;11790;49.578;11.214;2022-12-18T04:02:30;45.75;;;14.30;;
23242;SDS011;11790;49.578;11.214;2022-12-18T04:07:31;37.03;;;12.85;;
23242;SDS011;11790;49.578;11.214;2022-12-18T04:12:31;33.65;;;12.25;;
23242;SDS011;11790;49.578;11.214;2022-12-18T04:17:32;42.65;;;12.55;;
23242;SDS011;11790;49.578;11.214;2022-12-18T04:22:32;41.30;;;13.05;;
23242;SDS011;11790;49.578;11.214;2022-12-18T04:27:32;37.17;;;13.52;;
23242;SDS011;11790;49.578;11.214;2022-12-18T04:32:33;40.03;;;14.25;;
23242;SDS011;11790;49.578;11.214;2022-12-18T04:37:33;40.25;;;12.85;;
23242;SDS011;11790;49.578;11.214;2022-12-18T04:42:33;37.00;;;12.63;;
23242;SDS011;11790;49.578;11.214;2022-12-18T04:47:33;36.47;;;12.18;;
23242;SDS011;11790;49.578;11.214;2022-12-18T04:52:33;40.72;;;12.60;;
23242;SDS011;11790;49.578;11.214;2022-12-18T04:57:34;43.85;;;13.23;;
23242;SDS011;11790;49.578;11.214;2022-12-18T05:02:34;35.60;;;12.27;;
23242;SDS011;11790;49.578;11.214;2022-12-18T05:07:34;38.92;;;12.73;;
23242;SDS011;11790;49.578;11.214;2022-12-18T05:12:34;45.38;;;13.32;;
23242;SDS011;11790;49.578;11.214;2022-12-18T05:17:55;41.33;;;13.32;;
23242;SDS011;11790;49.578;11.214;2022-12-18T05:22:55;44.47;;;13.07;;
23242;SDS011;11790;49.578;11.214;2022-12-18T05:27:55;52.13;;;14.68;;
23242;SDS011;11790;49.578;11.214;2022-12-18T05:32:55;46.03;;;14.95;;
23242;SDS011;11790;49.578;11.214;2022-12-18T05:37:55;48.42;;;15.98;;
23242;SDS011;11790;49.578;11.214;2022-12-18T05:42:55;49.03;;;16.42;;
23242;SDS011;11790;49.578;11.214;2022-12-18T05:47:56;47.60;;;15.98;;
23242;SDS011;11790;49.578;11.214;2022-12-18T05:52:56;53.83;;;18.35;;
23242;SDS011;11790;49.578;11.214;2022-12-18T05:57:56;43.25;;;16.35;;
23242;SDS011;11790;49.578;11.214;2022-12-18T06:02:56;43.40;;;16.92;;
23242;SDS011;11790;49.578;11.214;2022-12-18T06:07:56;52.38;;;17.08;;
23242;SDS011;11790;49.578;11.214;2022-12-18T06:12:57;52.40;;;17.45;;
23242;SDS011;11790;49.578;11.214;2022-12-18T06:17:57;47.78;;;17.58;;
23242;SDS011;11790;49.578;11.214;2022-12-18T06:22:57;52.83;;;16.67;;
23242;SDS011;11790;49.578;11.214;2022-12-18T06:27:57;45.25;;;16.98;;
23242;SDS011;11790;49.578;11.214;2022-12-18T06:32:57;47.60;;;15.43;;
23242;SDS011;11790;49.578;11.214;2022-12-18T06:37:58;45.50;;;15.15;;
23242;SDS011;11790;49.578;11.214;2022-12-18T06:42:58;42.72;;;15.55;;
23242;SDS011;11790;49.578;11.214;2022-12-18T06:47:59;46.35;;;14.55;;
23242;SDS011;11790;49.578;11.214;2022-12-18T06:52:59;44.88;;;16.23;;
23242;SDS011;11790;49.578;11.214;2022-12-18T06:57:59;65.97;;;20.65;;
23242;SDS011;11790;49.578;11.214;2022-12-18T07:03:00;56.25;;;20.35;;
23242;SDS011;11790;49.578;11.214;2022-12-18T07:08:00;51.10;;;18.02;;
23242;SDS011;11790;49.578;11.214;2022-12-18T07:13:00;46.97;;;15.73;;
23242;SDS011;11790;49.578;11.214;2022-12-18T07:18:00;47.45;;;16.17;;
23242;SDS011;11790;49.578;11.214;2022-12-18T07:23:04;46.58;;;15.90;;
23242;SDS011;11790;49.578;11.214;2022-12-18T07:28:05;47.78;;;14.40;;
23242;SDS011;11790;49.578;11.214;2022-12-18T07:33:06;47.33;;;15.63;;
23242;SDS011;11790;49.578;11.214;2022-12-18T07:38:06;47.33;;;16.52;;
23242;SDS011;11790;49.578;11.214;2022-12-18T07:43:06;48.88;;;17.75;;
23242;SDS011;11790;49.578;11.214;2022-12-18T07:48:06;52.45;;;18.45;;
23242;SDS011;11790;49.578;11.214;2022-12-18T07:53:06;59.03;;;18.08;;
23242;SDS011;11790;49.578;11.214;2022-12-18T07:58:07;53.17;;;18.52;;
23242;SDS011;11790;49.578;11.214;2022-12-18T08:03:07;52.55;;;19.55;;
23242;SDS011;11790;49.578;11.214;2022-12-18T08:08:07;54.70;;;19.48;;
23242;SDS011;11790;49.578;11.214;2022-12-18T08:13:07;60.10;;;22.58;;
23242;SDS011;11790;49.578;11.214;2022-12-18T08:18:07;59.83;;;23.58;;
23242;SDS011;11790;49.578;11.214;2022-12-18T08:23:08;70.70;;;24.67;;
23242;SDS011;11790;49.578;11.214;2022-12-18T08:28:08;73.23;;;27.23;;
23242;SDS011;11790;49.578;11.214;2022-12-18T08:33:08;68.20;;;24.10;;
23242;SDS011;11790;49.578;11.214;2022-12-18T08:38:08;64.00;;;22.63;;
23242;SDS011;11790;49.578;11.214;2022-12-18T08:43:09;58.28;;;20.80;;
23242;SDS011;11790;49.578;11.214;2022-12-18T08:48:28;56.90;;;19.88;;
23242;SDS011;11790;49.578;11.214;2022-12-18T08:53:28;65.10;;;21.50;;
23242;SDS011;11790;49.578;11.214;2022-12-18T08:58:29;58.20;;;20.27;;
23242;SDS011;11790;49.578;11.214;2022-12-18T09:03:29;58.73;;;20.03;;
23242;SDS011;11790;49.578;11.214;2022-12-18T09:08:29;62.38;;;21.45;;
23242;SDS011;11790;49.578;11.214;2022-12-18T09:13:30;62.08;;;20.92;;
23242;SDS011;11790;49.578;11.214;2022-12-18T09:18:30;64.95;;;21.23;;
23242;SDS011;11790;49.578;11.214;2022-12-18T09:23:30;64.25;;;23.40;;
23242;SDS011;11790;49.578;11.214;2022-12-18T09:28:31;56.67;;;19.75;;
23242;SDS011;11790;49.578;11.214;2022-12-18T09:33:31;50.75;;;20.13;;
23242;SDS011;11790;49.578;11.214;2022-12-18T09:38:31;54.75;;;19.83;;
23242;SDS011;11790;49.578;11.214;2022-12-18T09:43:41;60.10;;;19.43;;
23242;SDS011;11790;49.578;11.214;2022-12-18T09:48:43;52.65;;;20.70;;
23242;SDS011;11790;49.578;11.214;2022-12-18T09:53:46;54.90;;;20.25;;
23242;SDS011;11790;49.578;11.214;2022-12-18T09:58:49;59.47;;;20.70;;
23242;SDS011;11790;49.578;11.214;2022-12-18T10:03:50;51.85;;;18.73;;
23242;SDS011;11790;49.578;11.214;2022-12-18T10:13:52;53.00;;;22.13;;
23242;SDS011;11790;49.578;11.214;2022-12-18T10:29:14;40.90;;;18.83;;
23242;SDS011;11790;49.578;11.214;2022-12-18T10:34:14;42.20;;;19.08;;
23242;SDS011;11790;49.578;11.214;2022-12-18T10:39:19;34.70;;;15.40;;
23242;SDS011;11790;49.578;11.214;2022-12-18T10:44:20;37.63;;;16.48;;
23242;SDS011;11790;49.578;11.214;2022-12-18T10:49:22;35.55;;;16.48;;
23242;SDS011;11790;49.578;11.214;2022-12-18T10:54:22;30.25;;;15.40;;
23242;SDS011;11790;49.578;11.214;2022-12-18T10:59:23;33.08;;;15.93;;
23242;SDS011;11790;49.578;11.214;2022-12-18T11:14:26;31.73;;;14.88;;
23242;SDS011;11790;49.578;11.214;2022-12-18T11:19:36;33.97;;;16.10;;
23242;SDS011;11790;49.578;11.214;2022-12-18T11:24:37;29.38;;;14.02;;
23242;SDS011;11790;49.578;11.214;2022-12-18T11:29:38;32.08;;;14.93;;
23242;SDS011;11790;49.578;11.214;2022-12-18T11:34:38;31.77;;;15.20;;
23242;SDS011;11790;49.578;11.214;2022-12-18T11:39:49;28.30;;;13.98;;
23242;SDS011;11790;49.578;11.214;2022-12-18T11:44:50;32.60;;;14.82;;
23242;SDS011;11790;49.578;11.214;2022-12-18T11:49:51;32.85;;;14.63;;
23242;SDS011;11790;49.578;11.214;2022-12-18T11:54:52;28.73;;;14.60;;
23242;SDS011;11790;49.578;11.214;2022-12-18T12:10:25;30.45;;;14.43;;
23242;SDS011;11790;49.578;11.214;2022-12-18T12:15:31;32.90;;;14.85;;
23242;SDS011;11790;49.578;11.214;2022-12-18T12:20:42;32.78;;;14.63;;
23242;SDS011;11790;49.578;11.214;2022-12-18T12:25:56;30.98;;;13.93;;
23242;SDS011;11790;49.578;11.214;2022-12-18T12:41:17;36.90;;;15.65;;
23242;SDS011;11790;49.578;11.214;2022-12-18T12:46:38;35.33;;;15.13;;
23242;SDS011;11790;49.578;11.214;2022-12-18T12:51:40;34.53;;;15.38;;
23242;SDS011;11790;49.578;11.214;2022-12-18T13:07:10;32.67;;;14.90;;
23242;SDS011;11790;49.578;11.214;2022-12-18T13:12:13;29.92;;;14.80;;
23242;SDS011;11790;49.578;11.214;2022-12-18T13:17:34;34.90;;;15.93;;
23242;SDS011;11790;49.578;11.214;2022-12-18T13:22:36;35.05;;;15.88;;
23242;SDS011;11790;49.578;11.214;2022-12-18T13:32:43;34.85;;;15.40;;
23242;SDS011;11790;49.578;11.214;2022-12-18T13:37:44;32.75;;;14.98;;
23242;SDS011;11790;49.578;11.214;2022-12-18T13:42:50;35.30;;;14.98;;
23242;SDS011;11790;49.578;11.214;2022-12-18T13:48:17;33.63;;;15.35;;
23242;SDS011;11790;49.578;11.214;2022-12-18T13:53:20;36.08;;;16.27;;
23242;SDS011;11790;49.578;11.214;2022-12-18T13:58:21;35.33;;;14.85;;
23242;SDS011;11790;49.578;11.214;2022-12-18T14:03:24;35.33;;;15.40;;
23242;SDS011;11790;49.578;11.214;2022-12-18T14:08:27;34.63;;;15.50;;
23242;SDS011;11790;49.578;11.214;2022-12-18T14:13:29;33.55;;;15.52;;
23242;SDS011;11790;49.578;11.214;2022-12-18T14:23:45;38.75;;;16.70;;
23242;SDS011;11790;49.578;11.214;2022-12-18T14:28:46;41.45;;;17.10;;
23242;SDS011;11790;49.578;11.214;2022-12-18T14:33:46;40.67;;;16.73;;
23242;SDS011;11790;49.578;11.214;2022-12-18T14:38:51;39.17;;;16.77;;
23242;SDS011;11790;49.578;11.214;2022-12-18T14:43:52;39.25;;;17.73;;
23242;SDS011;11790;49.578;11.214;2022-12-18T14:48:53;39.60;;;16.10;;
23242;SDS011;11790;49.578;11.214;2022-12-18T14:53:55;38.75;;;16.20;;
23242;SDS011;11790;49.578;11.214;2022-12-18T14:59:00;38.10;;;15.65;;
23242;SDS011;11790;49.578;11.214;2022-12-18T15:04:00;44.22;;;17.17;;
23242;SDS011;11790;49.578;11.214;2022-12-18T15:14:38;39.05;;;16.73;;
23242;SDS011;11790;49.578;11.214;2022-12-18T15:19:39;40.60;;;15.63;;
23242;SDS011;11790;49.578;11.214;2022-12-18T15:24:40;47.80;;;18.73;;
23242;SDS011;11790;49.578;11.214;2022-12-18T15:29:40;42.38;;;18.23;;
23242;SDS011;11790;49.578;11.214;2022-12-18T15:34:40;80.90;;;33.90;;
23242;SDS011;11790;49.578;11.214;2022-12-18T15:39:41;43.67;;;18.02;;
23242;SDS011;11790;49.578;11.214;2022-12-18T15:44:41;38.53;;;16.83;;
23242;SDS011;11790;49.578;11.214;2022-12-18T15:49:43;38.75;;;16.48;;
23242;SDS011;11790;49.578;11.214;2022-12-18T15:54:43;43.25;;;17.42;;
23242;SDS011;11790;49.578;11.214;2022-12-18T16:00:02;41.70;;;16.38;;
23242;SDS011;11790;49.578;11.214;2022-12-18T16:05:02;37.60;;;16.53;;
23242;SDS011;11790;49.578;11.214;2022-12-18T16:10:03;41.40;;;17.80;;
23242;SDS011;11790;49.578;11.214;2022-12-18T16:15:03;47.87;;;20.53;;
23242;SDS011;11790;49.578;11.214;2022-12-18T16:20:04;42.03;;;17.88;;
23242;SDS011;11790;49.578;11.214;2022-12-18T16:25:04;38.00;;;16.88;;
23242;SDS011;11790;49.578;11.214;2022-12-18T16:30:05;42.05;;;17.75;;
23242;SDS011;11790;49.578;11.214;2022-12-18T16:35:06;37.42;;;17.42;;
23242;SDS011;11790;49.578;11.214;2022-12-18T16:40:07;38.17;;;16.70;;
23242;SDS011;11790;49.578;11.214;2022-12-18T16:45:09;39.28;;;16.33;;
23242;SDS011;11790;49.578;11.214;2022-12-18T16:50:10;39.40;;;17.92;;
23242;SDS011;11790;49.578;11.214;2022-12-18T16:55:11;40.83;;;17.02;;
23242;SDS011;11790;49.578;11.214;2022-12-18T17:00:11;40.80;;;18.33;;
23242;SDS011;11790;49.578;11.214;2022-12-18T17:05:11;40.25;;;18.27;;
23242;SDS011;11790;49.578;11.214;2022-12-18T17:10:11;38.30;;;16.80;;
23242;SDS011;11790;49.578;11.214;2022-12-18T17:15:12;49.00;;;18.52;;
23242;SDS011;11790;49.578;11.214;2022-12-18T17:20:12;45.30;;;18.63;;
23242;SDS011;11790;49.578;11.214;2022-12-18T17:25:18;44.85;;;18.15;;
23242;SDS011;11790;49.578;11.214;2022-12-18T17:30:19;42.35;;;18.77;;
23242;SDS011;11790;49.578;11.214;2022-12-18T17:35:19;42.78;;;19.63;;
23242;SDS011;11790;49.578;11.214;2022-12-18T17:40:19;42.78;;;18.73;;
23242;SDS011;11790;49.578;11.214;2022-12-18T17:45:19;47.80;;;19.80;;
23242;SDS011;11790;49.578;11.214;2022-12-18T17:50:19;46.63;;;20.63;;
23242;SDS011;11790;49.578;11.214;2022-12-18T17:55:20;46.33;;;19.80;;
23242;SDS011;11790;49.578;11.214;2022-12-18T18:00:20;47.70;;;19.05;;
23242;SDS011;11790;49.578;11.214;2022-12-18T18:05:20;47.90;;;19.27;;
23242;SDS011;11790;49.578;11.214;2022-12-18T18:10:20;45.95;;;18.73;;
23242;SDS011;11790;49.578;11.214;2022-12-18T18:15:21;41.08;;;17.33;;
23242;SDS011;11790;49.578;11.214;2022-12-18T18:20:21;45.65;;;18.88;;
23242;SDS011;11790;49.578;11.214;2022-12-18T18:25:21;51.15;;;22.00;;
23242;SDS011;11790;49.578;11.214;2022-12-18T18:30:21;45.35;;;19.15;;
23242;SDS011;11790;49.578;11.214;2022-12-18T18:35:21;40.40;;;17.60;;
23242;SDS011;11790;49.578;11.214;2022-12-18T18:40:22;42.13;;;18.95;;
23242;SDS011;11790;49.578;11.214;2022-12-18T18:45:22;42.80;;;19.23;;
23242;SDS011;11790;49.578;11.214;2022-12-18T18:50:22;44.70;;;18.95;;
23242;SDS011;11790;49.578;11.214;2022-12-18T18:55:22;39.95;;;18.30;;
23242;SDS011;11790;49.578;11.214;2022-12-18T19:00:23;42.83;;;19.05;;
23242;SDS011;11790;49.578;11.214;2022-12-18T19:05:23;43.53;;;19.20;;
23242;SDS011;11790;49.578;11.214;2022-12-18T19:10:23;41.10;;;19.15;;
23242;SDS011;11790;49.578;11.214;2022-12-18T19:15:24;44.90;;;17.63;;
23242;SDS011;11790;49.578;11.214;2022-12-18T19:20:24;39.22;;;17.42;;
23242;SDS011;11790;49.578;11.214;2022-12-18T19:25:24;38.67;;;18.50;;
23242;SDS011;11790;49.578;11.214;2022-12-18T19:30:27;37.72;;;18.35;;
23242;SDS011;11790;49.578;11.214;2022-12-18T19:35:27;43.70;;;18.75;;
23242;SDS011;11790;49.578;11.214;2022-12-18T19:40:28;41.60;;;18.38;;
23242;SDS011;11790;49.578;11.214;2022-12-18T19:45:28;44.83;;;19.50;;
23242;SDS011;11790;49.578;11.214;2022-12-18T19:50:28;42.40;;;19.45;;
23242;SDS011;11790;49.578;11.214;2022-12-18T19:55:28;46.50;;;20.13;;
23242;SDS011;11790;49.578;11.214;2022-12-18T20:00:28;42.15;;;18.17;;
23242;SDS011;11790;49.578;11.214;2022-12-18T20:05:29;42.08;;;18.90;;
23242;SDS011;11790;49.578;11.214;2022-12-18T20:10:29;41.40;;;17.80;;
23242;SDS011;11790;49.578;11.214;2022-12-18T20:15:31;39.78;;;18.08;;
23242;SDS011;11790;49.578;11.214;2022-12-18T20:20:31;43.17;;;19.27;;
23242;SDS011;11790;49.578;11.214;2022-12-18T20:25:31;42.90;;;18.95;;
23242;SDS011;11790;49.578;11.214;2022-12-18T20:30:31;44.28;;;19.83;;
23242;SDS011;11790;49.578;11.214;2022-12-18T20:35:32;47.40;;;20.13;;
23242;SDS011;11790;49.578;11.214;2022-12-18T20:40:32;40.80;;;18.85;;
23242;SDS011;11790;49.578;11.214;2022-12-18T20:45:32;43.05;;;20.20;;
23242;SDS011;11790;49.578;11.214;2022-12-18T20:50:33;42.38;;;19.63;;
23242;SDS011;11790;49.578;11.214;2022-12-18T20:55:33;46.27;;;20.03;;
23242;SDS011;11790;49.578;11.214;2022-12-18T21:00:33;43.13;;;18.77;;
23242;SDS011;11790;49.578;11.214;2022-12-18T21:05:33;45.42;;;21.00;;
23242;SDS011;11790;49.578;11.214;2022-12-18T21:10:34;47.47;;;20.05;;
23242;SDS011;11790;49.578;11.214;2022-12-18T21:15:34;39.78;;;19.58;;
23242;SDS011;11790;49.578;11.214;2022-12-18T21:20:34;44.53;;;19.45;;
23242;SDS011;11790;49.578;11.214;2022-12-18T21:25:35;46.53;;;21.63;;
23242;SDS011;11790;49.578;11.214;2022-12-18T21:30:35;43.25;;;20.08;;
23242;SDS011;11790;49.578;11.214;2022-12-18T21:35:35;46.40;;;20.92;;
23242;SDS011;11790;49.578;11.214;2022-12-18T21:40:37;41.80;;;20.08;;
23242;SDS011;11790;49.578;11.214;2022-12-18T21:45:37;50.17;;;21.00;;
23242;SDS011;11790;49.578;11.214;2022-12-18T21:50:38;44.40;;;20.33;;
23242;SDS011;11790;49.578;11.214;2022-12-18T21:55:38;46.60;;;21.10;;
23242;SDS011;11790;49.578;11.214;2022-12-18T22:00:39;50.83;;;22.30;;
23242;SDS011;11790;49.578;11.214;2022-12-18T22:05:39;48.05;;;21.50;;
23242;SDS011;11790;49.578;11.214;2022-12-18T22:10:40;50.72;;;20.63;;
23242;SDS011;11790;49.578;11.214;2022-12-18T22:15:40;50.38;;;22.67;;
23242;SDS011;11790;49.578;11.214;2022-12-18T22:20:40;48.70;;;22.00;;
23242;SDS011;11790;49.578;11.214;2022-12-18T22:25:40;52.53;;;23.02;;
23242;SDS011;11790;49.578;11.214;2022-12-18T22:30:40;49.42;;;22.92;;
23242;SDS011;11790;49.578;11.214;2022-12-18T22:35:41;50.10;;;22.63;;
23242;SDS011;11790;49.578;11.214;2022-12-18T22:40:41;51.55;;;23.05;;
23242;SDS011;11790;49.578;11.214;2022-12-18T22:45:41;61.60;;;29.30;;
23242;SDS011;11790;49.578;11.214;2022-12-18T22:50:46;52.10;;;24.38;;
23242;SDS011;11790;49.578;11.214;2022-12-18T22:55:46;52.55;;;22.17;;
23242;SDS011;11790;49.578;11.214;2022-12-18T23:00:46;52.13;;;23.02;;
23242;SDS011;11790;49.578;11.214;2022-12-18T23:05:46;48.63;;;23.33;;
23242;SDS011;11790;49.578;11.214;2022-12-18T23:10:47;61.40;;;25.45;;
23242;SDS011;11790;49.578;11.214;2022-12-18T23:15:50;57.25;;;24.42;;
23242;SDS011;11790;49.578;11.214;2022-12-18T23:20:51;59.35;;;23.55;;
23242;SDS011;11790;49.578;11.214;2022-12-18T23:25:58;56.53;;;24.77;;
23242;SDS011;11790;49.578;11.214;2022-12-18T23:31:05;53.55;;;22.75;;
23242;SDS011;11790;49.578;11.214;2022-12-18T23:36:06;54.03;;;22.92;;
23242;SDS011;11790;49.578;11.214;2022-12-18T23:41:08;58.67;;;25.00;;
23242;SDS011;11790;49.578;11.214;2022-12-18T23:46:30;58.17;;;25.02;;
23242;SDS011;11790;49.578;11.214;2022-12-18T23:51:29;57.40;;;24.88;;
23242;SDS011;11790;49.578;11.214;2022-12-18T23:56:30;54.13;;;24.00;;
